Kezdőlap
METAR-TAF:

METAR-TAF

Repülőterek :

Majuro, Marshall-szigetek

földrajzi szélesség: 07-04N, földrajzi hosszúság: 171-17E, magasság: 2 m

Jelenlegi meteorológiai megfigyelések

A jelentés 4 órával és 35 perccel ezelõtt készült, 07:57 UTC
Kelet-északkeleti szél 12 kt
Hőmérséklet 29°C
Páratartalom 79%
Légköri nyomás 1009 hPa
Látótávolság: 24.1 km
Kevés felhő 1500 lábon
Szórványos felhőzet 5000 lábon
Szakadozott felhőzet 30000 lábon

METAR: PKMJ 190757Z 07012KT 15SM FEW015 SCT050 BKN300 29/25 A2980 RMK LAST

Idő: 00:32 (12:32 UTC)

Előrejelzés

A jelentés 57 perccel ezelõtt készült, 11:35 UTC
Az előrejelzés 19-én 12 óra UTC és 20-én 12 óra UTC között érvényes
Kelet-északkeleti szél 13 kt
Látótávolság: 10 km
Kevés felhő 1500 lábon
Szórványos felhőzet 5000 lábon

TAF: PKMJ 191135Z 1912/2012 07013KT P6SM FEW015 SCT050

Meteorológiai megfigyelések és előrejelzések több, mint 4000 repülőtéren (METAR és TAF jelentéseket).

A térképen piros és sárga pontok jelzik az elérhető meteorológiai állomásokat.

Mozgassa az egeret a pont fölött, hogy megjelenjen az állomás neve.

Azután kattintson az időjárási megfigyelések és előrejelzések megtekintéséhez.

A térkép megváltoztatása: kattintson a fekete keresztel jelölt zöld gombra ráközelítéshez, a vonallal jelölt zöld gombra távolításhoz, vagy a zöld nyilakra a szomszédos térképek eléréséhez.


METAR-TAF: